Time;durP1;ratioP1;P1;durP2;ratioP2;P2;SDS_P1;SDS_P2;PMS_P1;PMS_P2;Temp;Humidity;BMP_temperature;BMP_pressure;BME280_temperature;BME280_humidity;BME280_pressure;Samples;Min_cycle;Max_cycle;Signal;HPM_P1;HPM_P2
2022/06/28 00:02:13;;;;;;;2.78;0.30;;;20.00;83.00;;;;;;5042793;28;20100;-76
2022/06/28 00:04:42;;;;;;;0.63;0.32;;;19.90;83.20;;;;;;5035505;28;20096;-74
2022/06/28 00:07:09;;;;;;;1.17;0.25;;;19.90;82.70;;;;;;5052684;28;20032;-75
2022/06/28 00:09:36;;;;;;;0.47;0.17;;;20.10;83.00;;;;;;5052411;28;20467;-76
2022/06/28 00:12:04;;;;;;;0.60;0.15;;;20.20;82.00;;;;;;5051093;28;20017;-76
2022/06/28 00:17:17;;;;;;;0.75;0.15;;;20.70;81.90;;;;;;5043696;28;20099;-75
2022/06/28 00:19:44;;;;;;;2.10;0.40;;;20.90;81.50;;;;;;5048994;28;20469;-75
2022/06/28 00:22:12;;;;;;;2.25;0.10;;;21.10;81.00;;;;;;5036590;28;20390;-75
2022/06/28 00:24:39;;;;;;;1.95;0.35;;;21.20;81.40;;;;;;5035881;28;20021;-77
2022/06/28 00:27:06;;;;;;;0.75;0.20;;;21.10;81.30;;;;;;5044597;28;20029;-74
2022/06/28 00:29:34;;;;;;;0.63;0.28;;;21.40;81.60;;;;;;5051149;28;20033;-74
2022/06/28 00:32:01;;;;;;;2.63;0.20;;;21.80;80.40;;;;;;5042904;28;20056;-74
2022/06/28 00:34:29;;;;;;;1.73;0.30;;;21.70;80.00;;;;;;5041945;28;20029;-75
2022/06/28 00:36:56;;;;;;;2.58;0.28;;;21.90;79.70;;;;;;5043600;28;20176;-75
2022/06/28 00:39:24;;;;;;;0.82;0.10;;;21.80;80.40;;;;;;5042502;28;20067;-75
2022/06/28 00:41:52;;;;;;;3.15;0.40;;;22.10;79.50;;;;;;5040572;28;20095;-74
2022/06/28 00:44:22;;;;;;;3.35;0.20;;;22.50;79.90;;;;;;5046224;28;20059;-76
2022/06/28 00:46:50;;;;;;;2.10;0.40;;;22.60;79.90;;;;;;5039913;28;20024;-74
2022/06/28 00:49:17;;;;;;;0.63;0.20;;;22.60;78.90;;;;;;5045700;28;20105;-77
2022/06/28 00:51:44;;;;;;;2.40;0.35;;;22.80;78.30;;;;;;5046597;28;20040;-76
2022/06/28 00:54:12;;;;;;;0.55;0.15;;;22.80;79.20;;;;;;5058589;28;20056;-76
2022/06/28 00:56:40;;;;;;;5.70;0.30;;;23.10;79.00;;;;;;5048126;28;20041;-75
2022/06/28 00:59:07;;;;;;;3.65;0.30;;;23.00;78.50;;;;;;5047482;28;20474;-75
2022/06/28 01:01:34;;;;;;;2.03;0.57;;;23.30;78.40;;;;;;5043630;28;20102;-72
2022/06/28 01:04:02;;;;;;;0.90;0.20;;;23.50;78.70;;;;;;5053352;28;20032;-75
2022/06/28 01:06:29;;;;;;;4.35;0.43;;;23.70;77.80;;;;;;5053885;28;20122;-74
2022/06/28 01:08:57;;;;;;;0.70;0.10;;;23.90;77.70;;;;;;5051590;28;20100;-74
2022/06/28 01:11:28;;;;;;;1.13;0.20;;;24.20;77.40;;;;;;5043392;28;20447;-73
2022/06/28 01:14:06;;;;;;;1.00;0.20;;;24.20;78.10;;;;;;5047599;28;20032;-75
2022/06/28 01:16:35;;;;;;;1.60;0.32;;;24.40;76.70;;;;;;5051577;28;20025;-74
2022/06/28 01:19:03;;;;;;;2.05;0.47;;;24.50;77.30;;;;;;5038765;28;20033;-74
2022/06/28 01:21:32;;;;;;;2.33;0.20;;;24.60;77.00;;;;;;5042551;28;20059;-74
2022/06/28 01:24:00;;;;;;;0.88;0.50;;;24.80;77.00;;;;;;5047077;28;20037;-74
2022/06/28 01:26:29;;;;;;;2.05;0.60;;;25.20;76.10;;;;;;5043113;28;20391;-73
2022/06/28 01:28:56;;;;;;;0.17;0.10;;;25.20;76.50;;;;;;5039796;28;20432;-73
2022/06/28 01:31:25;;;;;;;1.58;0.57;;;25.20;76.90;;;;;;5034108;28;20100;-74
2022/06/28 01:33:53;;;;;;;1.88;0.20;;;25.20;77.20;;;;;;5043007;28;20443;-77
2022/06/28 01:36:24;;;;;;;4.45;0.30;;;25.20;76.80;;;;;;5048894;28;20037;-75
2022/06/28 01:38:51;;;;;;;1.48;0.13;;;24.90;76.60;;;;;;5051810;28;20057;-76
2022/06/28 01:41:34;;;;;;;2.88;0.25;;;25.40;76.00;;;;;;5048266;28;20025;-75
2022/06/28 01:44:04;;;;;;;0.28;0.15;;;25.40;76.90;;;;;;5041792;28;20037;-76
2022/06/28 01:46:33;;;;;;;3.72;0.30;;;25.50;76.20;;;;;;5041468;28;20025;-76
2022/06/28 01:49:08;;;;;;;1.23;0.13;;;25.60;75.70;;;;;;5032639;28;20523;-76
2022/06/28 01:51:36;;;;;;;1.70;0.15;;;25.80;75.50;;;;;;5060966;28;20036;-74
2022/06/28 01:54:03;;;;;;;1.25;0.20;;;25.90;75.60;;;;;;5039680;28;20377;-74
2022/06/28 01:56:32;;;;;;;1.55;0.20;;;25.60;75.90;;;;;;5045498;28;20071;-73
2022/06/28 01:58:59;;;;;;;1.00;0.20;;;25.80;75.80;;;;;;5039969;28;20048;-73
2022/06/28 02:01:26;;;;;;;2.03;0.20;;;25.80;75.20;;;;;;5052242;28;20117;-74
2022/06/28 02:03:54;;;;;;;3.92;0.28;;;25.70;76.00;;;;;;5056021;28;20130;-74
2022/06/28 02:06:28;;;;;;;2.35;0.25;;;25.40;75.40;;;;;;5051168;28;20043;-75
2022/06/28 02:08:55;;;;;;;0.45;0.13;;;25.80;76.30;;;;;;5055512;28;20028;-76
2022/06/28 02:11:22;;;;;;;5.38;0.40;;;25.60;75.90;;;;;;5052791;28;20124;-74
2022/06/28 02:13:50;;;;;;;4.60;0.40;;;25.70;75.20;;;;;;5051343;28;20021;-76
2022/06/28 02:16:17;;;;;;;2.15;1.05;;;25.50;74.90;;;;;;5049319;28;20033;-75
2022/06/28 02:18:44;;;;;;;2.45;0.40;;;25.10;76.70;;;;;;5051453;28;20032;-74
2022/06/28 02:21:12;;;;;;;1.77;0.38;;;25.20;77.00;;;;;;5044475;28;20040;-74
2022/06/28 02:23:39;;;;;;;1.25;0.20;;;25.30;76.90;;;;;;5050424;28;20200;-75
2022/06/28 02:26:11;;;;;;;2.50;0.85;;;24.30;77.30;;;;;;5039760;28;20030;-75
2022/06/28 02:28:39;;;;;;;0.88;0.20;;;22.70;79.20;;;;;;5057896;28;20033;-75
2022/06/28 02:31:14;;;;;;;1.17;0.10;;;21.50;81.90;;;;;;5050151;28;20076;-75
2022/06/28 02:33:43;;;;;;;1.97;0.30;;;20.60;83.90;;;;;;5051698;28;20021;-75
2022/06/28 02:41:41;;;;;;;1.80;0.32;;;19.50;87.20;;;;;;5053505;28;20508;-74
2022/06/28 02:44:08;;;;;;;0.75;0.20;;;19.30;88.00;;;;;;5051202;28;20179;-75
2022/06/28 02:46:36;;;;;;;1.27;0.10;;;19.10;88.60;;;;;;5035998;28;20030;-74
2022/06/28 02:49:04;;;;;;;4.13;0.50;;;18.80;88.30;;;;;;5045784;28;20024;-76
2022/06/28 02:51:31;;;;;;;0.47;0.10;;;18.80;88.90;;;;;;5040407;28;20515;-74
2022/06/28 02:53:58;;;;;;;4.88;0.80;;;18.80;89.40;;;;;;5030196;28;20422;-75
2022/06/28 02:56:26;;;;;;;1.58;0.25;;;18.80;89.70;;;;;;5054489;28;20041;-75
2022/06/28 02:58:56;;;;;;;1.48;0.30;;;18.80;89.50;;;;;;5050982;28;20036;-75
2022/06/28 03:01:23;;;;;;;0.68;0.20;;;18.60;89.60;;;;;;5050114;28;20052;-74
2022/06/28 03:03:51;;;;;;;1.45;0.30;;;18.30;90.00;;;;;;5051039;28;20043;-75
2022/06/28 03:06:18;;;;;;;0.98;0.10;;;18.30;90.20;;;;;;5052129;28;20025;-73
2022/06/28 03:08:46;;;;;;;2.47;0.20;;;18.30;90.40;;;;;;5050146;28;20025;-74
2022/06/28 03:11:13;;;;;;;1.35;0.28;;;18.50;90.60;;;;;;5039511;28;20061;-77
2022/06/28 03:13:41;;;;;;;0.47;0.20;;;18.50;90.50;;;;;;5031172;28;20533;-77
2022/06/28 03:16:08;;;;;;;2.70;0.50;;;18.30;90.30;;;;;;5036242;28;20026;-77
2022/06/28 03:18:35;;;;;;;0.30;0.00;;;18.10;90.40;;;;;;5044598;28;20029;-76
2022/06/28 03:21:03;;;;;;;1.25;0.17;;;18.00;90.90;;;;;;5040957;28;20076;-74
2022/06/28 03:23:30;;;;;;;1.27;0.32;;;17.80;91.00;;;;;;5033347;28;20347;-74
2022/06/28 03:25:58;;;;;;;1.35;0.22;;;17.60;91.20;;;;;;5034862;28;20030;-74
2022/06/28 03:28:25;;;;;;;1.90;0.20;;;17.50;91.50;;;;;;5031787;28;20025;-74
2022/06/28 03:30:53;;;;;;;3.70;0.28;;;17.40;91.70;;;;;;5039825;28;20021;-77
2022/06/28 03:33:20;;;;;;;4.32;0.30;;;17.20;92.10;;;;;;5049669;28;20491;-75
2022/06/28 03:35:47;;;;;;;2.20;0.20;;;17.20;92.00;;;;;;5049555;28;20124;-76
2022/06/28 03:38:15;;;;;;;2.58;0.50;;;17.10;92.10;;;;;;5050574;28;20411;-76
2022/06/28 03:40:42;;;;;;;2.22;0.20;;;17.00;92.60;;;;;;5032181;28;20450;-75
2022/06/28 03:43:10;;;;;;;0.28;0.10;;;16.90;92.50;;;;;;5050364;28;20035;-75
2022/06/28 03:45:37;;;;;;;1.27;0.10;;;16.90;92.30;;;;;;5051782;28;20104;-77
2022/06/28 03:48:05;;;;;;;1.33;0.47;;;16.90;92.70;;;;;;5030883;28;20025;-74
2022/06/28 03:50:32;;;;;;;3.85;0.35;;;16.80;92.90;;;;;;5035106;28;20048;-73
2022/06/28 03:53:00;;;;;;;1.23;0.20;;;16.80;93.00;;;;;;5040213;28;20499;-74
2022/06/28 03:55:30;;;;;;;2.03;0.30;;;16.70;93.00;;;;;;5064720;28;20086;-77
2022/06/28 03:57:58;;;;;;;0.95;0.20;;;16.70;93.00;;;;;;5050597;28;20028;-77
2022/06/28 04:00:25;;;;;;;4.35;0.50;;;16.50;93.80;;;;;;5047762;28;20031;-77
2022/06/28 04:02:53;;;;;;;3.47;0.35;;;16.40;94.20;;;;;;5049339;28;20029;-78
2022/06/28 04:05:20;;;;;;;2.08;0.25;;;16.30;94.40;;;;;;5056058;28;20029;-74
2022/06/28 04:07:47;;;;;;;0.57;0.20;;;16.30;94.40;;;;;;5030628;28;20113;-75
2022/06/28 04:10:15;;;;;;;2.63;0.17;;;16.20;94.10;;;;;;5034375;28;20033;-77
2022/06/28 04:12:42;;;;;;;2.80;0.28;;;16.20;94.60;;;;;;5050389;28;20029;-76
2022/06/28 04:15:13;;;;;;;2.90;0.30;;;16.30;94.70;;;;;;5057366;28;20017;-77
2022/06/28 04:17:41;;;;;;;5.80;0.30;;;16.30;94.80;;;;;;5049876;28;20036;-77
2022/06/28 04:20:09;;;;;;;4.82;0.45;;;16.30;95.10;;;;;;5048959;28;20174;-76
2022/06/28 04:22:36;;;;;;;0.43;0.30;;;16.30;95.20;;;;;;5054173;28;20032;-77
2022/06/28 04:25:04;;;;;;;1.67;0.20;;;16.40;95.50;;;;;;5056876;28;20468;-76
2022/06/28 04:27:31;;;;;;;1.65;0.20;;;16.30;95.20;;;;;;5034315;28;20033;-77
2022/06/28 04:29:59;;;;;;;2.63;0.55;;;16.40;95.20;;;;;;5034729;28;20036;-76
2022/06/28 04:32:27;;;;;;;1.08;0.40;;;16.40;95.20;;;;;;5034090;28;20451;-76
2022/06/28 04:34:54;;;;;;;1.02;0.38;;;16.40;95.40;;;;;;5052343;28;20174;-76
2022/06/28 04:37:22;;;;;;;1.33;0.28;;;16.30;95.70;;;;;;5052736;28;20110;-75
2022/06/28 04:39:49;;;;;;;2.70;1.02;;;16.30;95.60;;;;;;5051082;28;20021;-76
2022/06/28 04:42:18;;;;;;;4.57;0.52;;;16.30;95.70;;;;;;5051554;28;20611;-75
2022/06/28 04:44:45;;;;;;;4.53;0.45;;;16.40;95.60;;;;;;5053690;28;20052;-76
2022/06/28 04:47:13;;;;;;;3.15;0.40;;;16.40;95.60;;;;;;5052019;28;20039;-76
2022/06/28 04:49:40;;;;;;;2.78;0.65;;;16.40;95.60;;;;;;5052329;28;20449;-76
2022/06/28 04:52:08;;;;;;;3.53;0.70;;;16.30;95.60;;;;;;5052793;28;20041;-76
2022/06/28 04:54:35;;;;;;;2.13;0.38;;;16.40;95.60;;;;;;5034891;28;20493;-75
2022/06/28 04:57:03;;;;;;;0.93;0.20;;;16.30;95.60;;;;;;5032896;28;20116;-75
2022/06/28 04:59:30;;;;;;;3.97;0.40;;;16.20;95.60;;;;;;5036367;28;20036;-76
2022/06/28 05:01:57;;;;;;;1.48;0.30;;;16.20;95.60;;;;;;5035012;28;20021;-76
2022/06/28 05:04:25;;;;;;;2.22;0.40;;;16.20;95.80;;;;;;5035121;28;20087;-75
2022/06/28 05:06:52;;;;;;;1.25;0.32;;;16.30;95.50;;;;;;5062356;28;20119;-75
2022/06/28 05:09:19;;;;;;;1.95;0.20;;;16.20;95.70;;;;;;5072309;28;20029;-76
2022/06/28 05:11:47;;;;;;;3.38;0.28;;;16.10;95.70;;;;;;5050266;28;20471;-77
2022/06/28 05:14:14;;;;;;;0.70;0.40;;;16.10;95.70;;;;;;5052507;28;20067;-75
2022/06/28 05:16:41;;;;;;;1.27;0.13;;;16.00;95.90;;;;;;5044810;28;20075;-74
2022/06/28 05:19:08;;;;;;;1.63;0.40;;;15.90;96.10;;;;;;5072667;28;20634;-75
2022/06/28 05:21:36;;;;;;;1.45;0.68;;;15.80;96.50;;;;;;5054966;28;20111;-75
2022/06/28 05:24:03;;;;;;;1.98;0.30;;;15.80;96.50;;;;;;5051861;28;20099;-74
2022/06/28 05:26:31;;;;;;;1.30;0.20;;;15.80;96.50;;;;;;5038170;28;20091;-74
2022/06/28 05:28:58;;;;;;;0.28;0.20;;;15.80;96.40;;;;;;5053258;28;20107;-74
2022/06/28 05:31:25;;;;;;;2.22;0.28;;;15.80;96.40;;;;;;5034485;28;20341;-76
2022/06/28 05:33:55;;;;;;;2.40;0.85;;;15.90;96.50;;;;;;5048523;28;20032;-76
2022/06/28 05:36:22;;;;;;;4.68;1.20;;;15.90;96.40;;;;;;5057754;28;20035;-75
2022/06/28 05:38:50;;;;;;;0.50;0.35;;;15.90;96.50;;;;;;5071418;28;20521;-76
2022/06/28 05:41:17;;;;;;;2.97;0.30;;;15.80;96.50;;;;;;5057074;28;20064;-75
2022/06/28 05:43:44;;;;;;;0.55;0.30;;;15.80;96.70;;;;;;5039712;28;20344;-75
2022/06/28 05:46:12;;;;;;;0.55;0.20;;;15.70;96.50;;;;;;5050304;28;20102;-76
2022/06/28 05:48:39;;;;;;;1.40;0.43;;;15.70;96.90;;;;;;5041039;28;20103;-75
2022/06/28 05:51:06;;;;;;;1.88;0.32;;;15.60;96.80;;;;;;5048989;28;20090;-75
2022/06/28 05:53:34;;;;;;;0.90;0.30;;;15.60;97.00;;;;;;5067131;28;20028;-76
2022/06/28 05:56:01;;;;;;;0.75;0.30;;;15.60;97.30;;;;;;5032411;28;20332;-75
2022/06/28 05:58:28;;;;;;;1.92;0.25;;;15.60;97.40;;;;;;5036049;28;20112;-75
2022/06/28 06:00:56;;;;;;;0.60;0.20;;;15.60;97.20;;;;;;5044388;28;20025;-76
2022/06/28 06:03:23;;;;;;;0.75;0.38;;;15.70;97.40;;;;;;5048651;28;20094;-74
2022/06/28 06:05:51;;;;;;;3.45;0.30;;;15.60;97.20;;;;;;5064924;28;20073;-75
2022/06/28 06:08:18;;;;;;;2.05;0.30;;;15.50;97.20;;;;;;5069779;28;20028;-75
2022/06/28 06:10:46;;;;;;;1.63;0.40;;;15.60;97.20;;;;;;5052865;28;20372;-75
2022/06/28 06:13:13;;;;;;;2.65;0.90;;;15.60;96.90;;;;;;5041634;28;20505;-74
2022/06/28 06:15:40;;;;;;;2.45;0.50;;;15.50;97.00;;;;;;5040914;28;20032;-74
2022/06/28 06:18:08;;;;;;;1.67;0.52;;;15.50;97.20;;;;;;5044785;28;20120;-73
2022/06/28 06:20:35;;;;;;;2.17;1.05;;;15.50;97.40;;;;;;5046672;28;20087;-75
2022/06/28 06:23:03;;;;;;;0.80;0.35;;;15.40;97.80;;;;;;5070040;28;20025;-74
2022/06/28 06:25:30;;;;;;;4.18;1.25;;;15.40;97.70;;;;;;5040777;28;20056;-73
2022/06/28 06:27:57;;;;;;;2.90;0.70;;;15.40;97.80;;;;;;5037544;28;20012;-73
2022/06/28 06:30:24;;;;;;;0.20;0.10;;;15.40;97.80;;;;;;5047269;28;20116;-73
2022/06/28 06:32:52;;;;;;;1.20;0.20;;;15.30;97.60;;;;;;5059261;28;20385;-74
2022/06/28 06:35:19;;;;;;;0.85;0.30;;;15.30;97.40;;;;;;5051213;28;20390;-73
2022/06/28 06:37:47;;;;;;;1.15;0.28;;;15.30;97.50;;;;;;5053813;28;20262;-72
2022/06/28 06:40:14;;;;;;;2.53;1.05;;;15.20;97.50;;;;;;5052799;28;20112;-73
2022/06/28 06:42:41;;;;;;;4.45;1.05;;;15.20;97.60;;;;;;5066633;28;20032;-76
2022/06/28 06:45:09;;;;;;;4.63;0.60;;;15.20;97.60;;;;;;5049650;28;20048;-73
2022/06/28 06:47:36;;;;;;;2.25;0.93;;;15.20;97.70;;;;;;5050720;28;20027;-73
2022/06/28 06:50:08;;;;;;;3.38;1.27;;;15.10;97.90;;;;;;5051216;28;20033;-73
2022/06/28 06:52:36;;;;;;;1.85;1.60;;;15.10;98.10;;;;;;5053560;28;20470;-73
2022/06/28 06:55:04;;;;;;;3.17;1.33;;;15.10;98.00;;;;;;5066434;28;20057;-75
2022/06/28 06:57:32;;;;;;;4.90;2.25;;;15.10;98.30;;;;;;5055920;28;20080;-73
2022/06/28 06:59:59;;;;;;;2.72;1.80;;;15.10;98.40;;;;;;5052564;28;20107;-74
2022/06/28 07:02:26;;;;;;;1.65;0.95;;;15.10;98.60;;;;;;5050992;28;20017;-73
2022/06/28 07:04:54;;;;;;;1.15;0.70;;;15.10;98.30;;;;;;5047327;28;20108;-74
2022/06/28 07:07:22;;;;;;;1.27;0.57;;;15.00;98.30;;;;;;5029766;28;20390;-75
2022/06/28 07:09:51;;;;;;;1.85;0.60;;;15.00;98.40;;;;;;5038203;28;20028;-74
2022/06/28 07:12:18;;;;;;;1.55;0.85;;;15.00;98.50;;;;;;5030383;28;20053;-73
2022/06/28 07:14:45;;;;;;;2.42;0.75;;;15.00;98.60;;;;;;5029694;28;20033;-73
2022/06/28 07:17:12;;;;;;;1.58;0.90;;;14.90;98.60;;;;;;5038929;28;20517;-74
2022/06/28 07:19:40;;;;;;;1.27;0.90;;;14.90;98.70;;;;;;5049599;28;20376;-73
2022/06/28 07:22:07;;;;;;;3.45;0.85;;;14.80;98.70;;;;;;5049514;28;20062;-73
2022/06/28 07:24:34;;;;;;;2.65;0.50;;;14.80;98.80;;;;;;5046199;28;20122;-74
2022/06/28 07:27:02;;;;;;;0.40;0.30;;;14.80;98.70;;;;;;5038402;28;20029;-75
2022/06/28 07:29:29;;;;;;;3.30;0.88;;;14.80;98.70;;;;;;5064229;28;20104;-75
2022/06/28 07:31:56;;;;;;;1.27;0.55;;;14.70;98.80;;;;;;5045512;28;20040;-73
2022/06/28 07:34:24;;;;;;;0.68;0.20;;;14.70;99.00;;;;;;5053542;28;20486;-77
2022/06/28 07:36:51;;;;;;;1.17;0.20;;;14.70;99.00;;;;;;5049645;28;20083;-76
2022/06/28 07:39:19;;;;;;;2.72;0.40;;;14.60;99.00;;;;;;5047441;28;20025;-74
2022/06/28 07:41:46;;;;;;;2.47;1.15;;;14.50;98.70;;;;;;5044217;28;20131;-76
2022/06/28 07:44:13;;;;;;;4.70;1.30;;;14.50;99.00;;;;;;5046751;28;20041;-75
2022/06/28 07:46:41;;;;;;;3.30;2.35;;;14.40;98.80;;;;;;5046894;28;20029;-75
2022/06/28 07:49:08;;;;;;;3.22;2.15;;;14.40;98.80;;;;;;5052799;28;20046;-76
2022/06/28 07:54:21;;;;;;;1.58;0.80;;;14.30;99.00;;;;;;5040405;28;20067;-75
2022/06/28 07:56:48;;;;;;;4.65;1.10;;;14.30;99.10;;;;;;5051679;28;20168;-75
2022/06/28 07:59:16;;;;;;;1.48;0.93;;;14.30;99.40;;;;;;5050275;28;20041;-78
2022/06/28 08:01:43;;;;;;;2.17;0.80;;;14.30;99.40;;;;;;5054272;28;20047;-77
2022/06/28 08:04:11;;;;;;;2.05;0.68;;;14.30;99.30;;;;;;5045263;28;20045;-75
2022/06/28 08:06:39;;;;;;;2.65;0.82;;;14.40;99.30;;;;;;5050418;28;20029;-76
2022/06/28 08:09:07;;;;;;;2.35;0.70;;;14.40;99.20;;;;;;5052128;28;20426;-76
2022/06/28 08:11:34;;;;;;;2.05;0.93;;;14.40;99.20;;;;;;5048766;28;20439;-75
2022/06/28 08:14:02;;;;;;;1.90;0.32;;;14.30;99.30;;;;;;5048328;28;20040;-75
2022/06/28 08:16:29;;;;;;;2.17;0.60;;;14.30;99.40;;;;;;5051023;28;20573;-75
2022/06/28 08:18:57;;;;;;;4.03;0.73;;;14.30;99.70;;;;;;5046460;28;20379;-74
2022/06/28 08:21:24;;;;;;;1.73;0.52;;;14.20;99.60;;;;;;5054350;28;20055;-74
2022/06/28 08:23:52;;;;;;;2.42;0.50;;;14.30;99.90;;;;;;5052183;28;20042;-73
2022/06/28 08:26:19;;;;;;;0.85;0.52;;;14.30;99.70;;;;;;5050735;28;20043;-77
2022/06/28 08:28:46;;;;;;;2.08;0.40;;;14.30;99.60;;;;;;5042447;28;20025;-76
2022/06/28 08:31:14;;;;;;;1.85;0.57;;;14.30;99.50;;;;;;5045674;28;20036;-73
2022/06/28 08:33:41;;;;;;;2.00;1.00;;;14.30;99.60;;;;;;5046720;28;20022;-73
2022/06/28 08:36:08;;;;;;;2.33;0.75;;;14.30;99.70;;;;;;5039966;28;20033;-73
2022/06/28 08:38:39;;;;;;;1.38;0.77;;;14.20;99.70;;;;;;5047415;28;20064;-75
2022/06/28 08:41:07;;;;;;;4.65;1.10;;;14.20;99.80;;;;;;5046304;28;20049;-71
2022/06/28 08:43:35;;;;;;;1.13;0.38;;;14.20;99.90;;;;;;5051260;28;20348;-73
2022/06/28 08:46:03;;;;;;;3.30;0.55;;;14.20;99.90;;;;;;5048122;28;20081;-72
2022/06/28 08:48:42;;;;;;;3.03;0.65;;;14.20;99.90;;;;;;5050647;28;20494;-74
2022/06/28 08:51:11;;;;;;;3.28;0.68;;;14.20;99.90;;;;;;5055939;28;20048;-74
2022/06/28 08:53:40;;;;;;;1.20;0.40;;;14.20;99.80;;;;;;5045920;28;20060;-73
2022/06/28 08:56:09;;;;;;;0.68;0.38;;;14.20;99.70;;;;;;5047438;28;20033;-75
2022/06/28 08:58:42;;;;;;;4.45;0.40;;;14.20;99.90;;;;;;5049869;28;20021;-74
2022/06/28 09:01:10;;;;;;;1.98;0.50;;;14.20;99.90;;;;;;5042105;28;20029;-74
2022/06/28 09:03:38;;;;;;;1.50;0.40;;;14.20;99.90;;;;;;5041434;28;20125;-73
2022/06/28 09:06:06;;;;;;;0.95;0.30;;;14.10;99.90;;;;;;5047818;28;20098;-74
2022/06/28 09:08:34;;;;;;;3.75;0.70;;;14.10;99.90;;;;;;5049463;28;20117;-74
2022/06/28 09:11:01;;;;;;;1.75;0.82;;;14.10;99.90;;;;;;5038869;28;20133;-74
2022/06/28 09:13:29;;;;;;;2.25;1.58;;;14.20;99.90;;;;;;5048764;28;20032;-75
2022/06/28 09:16:02;;;;;;;4.13;2.40;;;14.10;99.90;;;;;;5051291;28;20044;-75
2022/06/28 09:18:36;;;;;;;8.77;3.75;;;14.10;99.90;;;;;;5059172;28;20040;-74
2022/06/28 09:21:09;;;;;;;6.55;3.97;;;14.10;99.90;;;;;;5036617;28;20030;-74
2022/06/28 09:23:39;;;;;;;4.63;1.58;;;14.10;99.90;;;;;;5031427;28;20033;-74
2022/06/28 09:26:15;;;;;;;4.35;1.55;;;14.10;99.90;;;;;;5047932;28;20048;-74
2022/06/28 09:28:49;;;;;;;2.67;0.90;;;14.10;99.90;;;;;;5072174;28;20123;-73
2022/06/28 09:31:21;;;;;;;2.05;1.17;;;14.10;99.90;;;;;;5055240;28;20060;-74
2022/06/28 09:34:08;;;;;;;6.22;1.98;;;14.10;99.90;;;;;;5067253;28;20025;-74
2022/06/28 09:36:37;;;;;;;4.00;1.75;;;14.10;99.90;;;;;;5046592;28;20171;-74
2022/06/28 09:39:13;;;;;;;3.65;1.20;;;14.10;99.90;;;;;;5050085;28;20034;-74
2022/06/28 09:41:46;;;;;;;3.45;1.50;;;14.00;99.90;;;;;;5052961;28;20033;-74
2022/06/28 09:44:13;;;;;;;2.05;1.80;;;14.00;99.90;;;;;;5050283;28;20136;-74
2022/06/28 09:46:41;;;;;;;2.53;1.33;;;14.00;99.90;;;;;;5035162;28;20029;-74
2022/06/28 09:49:09;;;;;;;3.08;1.52;;;14.00;99.90;;;;;;5032036;28;20032;-74
2022/06/28 09:51:38;;;;;;;4.43;2.10;;;13.90;99.90;;;;;;5039573;28;20040;-74
2022/06/28 09:54:09;;;;;;;3.40;2.67;;;13.90;99.90;;;;;;5031418;28;20729;-76
2022/06/28 09:56:39;;;;;;;2.67;1.40;;;13.80;99.90;;;;;;5046570;28;20385;-74
2022/06/28 09:59:07;;;;;;;1.60;0.88;;;13.70;99.90;;;;;;5052415;28;20064;-74
2022/06/28 10:01:35;;;;;;;1.13;0.60;;;13.60;99.90;;;;;;5032002;28;20490;-73
2022/06/28 10:04:03;;;;;;;1.13;0.70;;;13.50;99.90;;;;;;5030991;28;20087;-75
2022/06/28 10:06:31;;;;;;;3.90;0.70;;;13.40;99.90;;;;;;5045540;28;20021;-75
2022/06/28 10:08:59;;;;;;;0.55;0.50;;;13.40;99.90;;;;;;5061080;28;20037;-75
2022/06/28 10:15:00;;;;;;;0.50;0.30;;;13.40;99.90;;;;;;5055177;28;20033;-74
2022/06/28 10:17:17;;;;;;;0.95;0.35;;;13.40;99.90;;;;;;5048967;28;20113;-75
2022/06/28 10:19:45;;;;;;;1.92;0.47;;;13.50;99.90;;;;;;5063766;28;20031;-74
2022/06/28 10:22:13;;;;;;;2.67;0.40;;;13.50;99.90;;;;;;5057599;28;20039;-74
2022/06/28 10:24:57;;;;;;;1.75;0.57;;;13.60;99.90;;;;;;5068114;28;20051;-77
2022/06/28 10:27:25;;;;;;;0.57;0.50;;;13.60;99.90;;;;;;5031321;28;20114;-74
2022/06/28 10:30:07;;;;;;;1.60;0.80;;;13.60;99.90;;;;;;5031525;28;20172;-74
2022/06/28 10:33:05;;;;;;;0.73;0.40;;;13.60;99.90;;;;;;5050146;28;20056;-74
2022/06/28 10:35:33;;;;;;;1.25;0.40;;;13.60;99.90;;;;;;5043829;28;20044;-74
2022/06/28 10:38:09;;;;;;;1.15;0.65;;;13.70;99.90;;;;;;5030569;28;20033;-74
2022/06/28 10:40:49;;;;;;;4.85;1.60;;;13.70;99.90;;;;;;5037024;28;20025;-74
2022/06/28 10:43:58;;;;;;;3.45;1.20;;;13.70;99.90;;;;;;5050534;28;20036;-74
2022/06/28 10:46:26;;;;;;;1.73;0.85;;;13.70;99.90;;;;;;5049315;28;20036;-74
2022/06/28 10:48:54;;;;;;;3.90;0.65;;;13.60;99.90;;;;;;5050352;28;20062;-74
2022/06/28 10:51:22;;;;;;;1.63;0.73;;;13.50;99.90;;;;;;5057617;28;20085;-73
2022/06/28 10:54:08;;;;;;;4.22;0.80;;;13.40;99.90;;;;;;5071107;28;20025;-74
2022/06/28 10:56:41;;;;;;;3.65;0.70;;;13.40;99.90;;;;;;5053431;28;20029;-75
2022/06/28 10:59:14;;;;;;;1.60;0.90;;;13.30;99.90;;;;;;5054730;28;20104;-74
2022/06/28 11:01:44;;;;;;;2.50;1.15;;;13.20;99.90;;;;;;5052631;28;20408;-75
2022/06/28 11:04:21;;;;;;;2.08;0.82;;;13.20;99.90;;;;;;5050361;28;20412;-75
2022/06/28 11:06:53;;;;;;;2.17;1.13;;;13.20;99.90;;;;;;5047084;28;20041;-75
2022/06/28 11:09:38;;;;;;;1.67;1.10;;;13.10;99.90;;;;;;5030472;28;20100;-75
2022/06/28 11:12:06;;;;;;;0.88;0.60;;;13.10;99.90;;;;;;5049802;28;20381;-75
2022/06/28 11:14:44;;;;;;;6.10;1.48;;;13.00;99.90;;;;;;5044103;28;20057;-75
2022/06/28 11:17:22;;;;;;;3.40;1.75;;;13.00;99.90;;;;;;5037988;28;20056;-75
2022/06/28 11:19:53;;;;;;;3.53;1.52;;;13.00;99.90;;;;;;5040823;28;20025;-75
2022/06/28 11:22:43;;;;;;;2.60;1.42;;;13.00;99.90;;;;;;5038616;28;20489;-75
2022/06/28 11:25:14;;;;;;;2.33;1.08;;;13.00;99.90;;;;;;5043097;28;20033;-73
2022/06/28 11:27:44;;;;;;;2.58;1.55;;;13.00;99.90;;;;;;5066195;28;20040;-74
2022/06/28 11:30:13;;;;;;;2.33;1.33;;;12.90;99.90;;;;;;5047914;28;20029;-73
2022/06/28 11:32:45;;;;;;;4.78;1.33;;;12.90;99.90;;;;;;5047987;28;20033;-73
2022/06/28 11:35:23;;;;;;;4.15;1.60;;;12.90;99.90;;;;;;5045062;28;20037;-74
2022/06/28 11:37:54;;;;;;;7.00;1.48;;;12.80;99.90;;;;;;5048773;28;20424;-74
2022/06/28 11:40:26;;;;;;;3.35;1.15;;;12.80;99.90;;;;;;5043549;28;20107;-76
2022/06/28 11:43:08;;;;;;;2.83;1.23;;;12.80;99.90;;;;;;5045289;28;20435;-76
2022/06/28 11:45:48;;;;;;;3.83;1.20;;;12.70;99.90;;;;;;5046688;28;20040;-76
2022/06/28 11:48:18;;;;;;;3.63;2.05;;;12.70;99.90;;;;;;5041146;28;20132;-78
2022/06/28 11:50:54;;;;;;;3.30;1.17;;;12.70;99.90;;;;;;5037308;28;20040;-76
2022/06/28 11:53:22;;;;;;;2.95;1.45;;;12.60;99.90;;;;;;5047674;28;20041;-75
2022/06/28 11:55:55;;;;;;;3.10;1.30;;;12.60;99.90;;;;;;5046869;28;20037;-75
2022/06/28 11:58:31;;;;;;;2.30;1.58;;;12.50;99.90;;;;;;5030445;28;20180;-76
2022/06/28 12:01:04;;;;;;;5.85;1.48;;;12.50;99.90;;;;;;5034350;28;20032;-74
2022/06/28 12:03:33;;;;;;;2.70;1.10;;;12.50;99.90;;;;;;5040085;28;20075;-74
2022/06/28 12:06:02;;;;;;;7.28;1.35;;;12.50;99.90;;;;;;5038522;28;20024;-76
2022/06/28 12:08:49;;;;;;;2.67;1.55;;;12.50;99.90;;;;;;5028600;28;20386;-74
2022/06/28 12:11:28;;;;;;;1.35;1.17;;;12.50;99.90;;;;;;5025147;28;20025;-74
2022/06/28 12:14:04;;;;;;;3.90;2.45;;;12.50;99.90;;;;;;5028010;28;20025;-74
2022/06/28 12:16:43;;;;;;;3.08;1.58;;;12.50;99.90;;;;;;5044598;28;20083;-74
2022/06/28 12:19:14;;;;;;;6.10;1.50;;;12.50;99.90;;;;;;5047589;28;20354;-76
2022/06/28 12:22:09;;;;;;;2.63;1.30;;;12.50;99.90;;;;;;5046632;28;20028;-75
2022/06/28 12:24:43;;;;;;;2.55;1.52;;;12.50;99.90;;;;;;5060825;28;20037;-76
2022/06/28 12:27:15;;;;;;;11.98;4.45;;;12.50;99.90;;;;;;5030328;28;20040;-76
2022/06/28 12:29:43;;;;;;;17.58;10.60;;;12.50;99.90;;;;;;5034143;28;20163;-75
2022/06/28 12:32:11;;;;;;;12.25;7.40;;;12.50;99.90;;;;;;5028122;28;21043;-77
2022/06/28 12:34:40;;;;;;;8.15;3.53;;;12.50;99.90;;;;;;5028694;28;20087;-76
2022/06/28 12:37:08;;;;;;;4.65;3.00;;;12.60;99.90;;;;;;5028800;28;20053;-76
2022/06/28 12:39:36;;;;;;;7.90;3.45;;;12.60;99.90;;;;;;5027248;28;20090;-76
2022/06/28 12:42:05;;;;;;;6.03;4.10;;;12.60;99.90;;;;;;5030554;28;20445;-76
2022/06/28 12:44:33;;;;;;;6.32;3.28;;;12.60;99.90;;;;;;5032866;28;20045;-76
2022/06/28 12:47:01;;;;;;;7.90;4.47;;;12.50;99.90;;;;;;5031289;28;20055;-75
2022/06/28 12:49:29;;;;;;;7.65;4.85;;;12.50;99.90;;;;;;5031694;28;20473;-75
2022/06/28 12:51:56;;;;;;;10.38;4.93;;;12.50;99.90;;;;;;5033485;28;20043;-74
2022/06/28 12:54:24;;;;;;;8.45;5.07;;;12.30;99.90;;;;;;5035911;28;21225;-75
2022/06/28 12:56:51;;;;;;;8.48;5.32;;;12.30;99.90;;;;;;5043912;28;20029;-74
2022/06/28 12:59:19;;;;;;;5.68;3.33;;;12.20;99.90;;;;;;5042996;28;20037;-74
2022/06/28 13:01:46;;;;;;;3.75;2.72;;;12.20;99.90;;;;;;5037290;28;20025;-74
2022/06/28 13:04:15;;;;;;;5.60;3.35;;;12.10;99.90;;;;;;5033535;28;20132;-74
2022/06/28 13:06:44;;;;;;;5.25;3.33;;;12.10;99.90;;;;;;5035436;28;20108;-74
2022/06/28 13:09:12;;;;;;;5.72;2.40;;;12.00;99.90;;;;;;5035244;28;20560;-74
2022/06/28 13:11:40;;;;;;;6.72;3.15;;;11.90;99.90;;;;;;5037557;28;20037;-73